Terminal Aerodrome Forecast
Issued by NWS

Home | Current Version | Previous Version | Text Only | Print | Product List | Glossary On
Versions: 1 2 3 4 5 6 7 8 9 10 11 12 13 14 15 16 17 18 19 20 21 22 23 24 25 26 27 28 29 30 31 32 33 34 35 36 37 38 39 40 41 42 43 44 45
000
FTUS45 KBOU 151023 AAB
TAFAPA
TAF AMD
KAPA 151023Z 1510/1606 36009KT P6SM FEW008 BKN020
     FM151100 01006KT P6SM SCT006 OVC014
      TEMPO 1512/1515 3SM BR OVC006
     FM151600 07005KT P6SM SCT008 BKN020
     FM151900 14010KT P6SM FEW040 SCT110
     FM160200 19009KT P6SM FEW120=

USA.gov is the U.S. government's official web portal to all federal, state and local government web resources and services.